createdAt,value
2023-03-11T00:02:25.918Z,10.72
2023-03-11T00:04:52.644Z,10.75
2023-03-11T00:07:19.384Z,10.75
2023-03-11T00:09:46.857Z,10.79
2023-03-11T00:12:13.584Z,10.82
2023-03-11T00:14:40.254Z,10.85
2023-03-11T00:17:07.031Z,10.84
2023-03-11T00:19:33.816Z,10.83
2023-03-11T00:22:02.754Z,10.79
2023-03-11T00:24:29.565Z,10.78
2023-03-11T00:26:56.222Z,10.80
2023-03-11T00:29:22.960Z,10.75
2023-03-11T00:31:49.757Z,10.68
2023-03-11T00:34:16.401Z,10.71
2023-03-11T00:36:43.059Z,10.66
2023-03-11T00:39:11.230Z,10.66
2023-03-11T00:41:38.141Z,10.69
2023-03-11T00:44:04.801Z,10.63
2023-03-11T00:46:31.698Z,10.69
2023-03-11T00:48:58.459Z,10.62
2023-03-11T00:51:25.108Z,10.69
2023-03-11T00:53:51.809Z,10.67
2023-03-11T00:56:18.642Z,10.65
2023-03-11T00:58:46.004Z,10.65
2023-03-11T01:01:19.722Z,10.64
2023-03-11T01:03:47.117Z,10.60
2023-03-11T01:06:14.233Z,10.62
2023-03-11T01:08:41.990Z,10.60
2023-03-11T01:11:09.242Z,10.58
2023-03-11T01:13:36.512Z,10.56
2023-03-11T01:16:03.453Z,10.56
2023-03-11T01:18:30.317Z,10.53
2023-03-11T01:20:57.054Z,10.57
2023-03-11T01:23:23.722Z,10.53
2023-03-11T01:25:50.520Z,10.55
2023-03-11T01:28:17.412Z,10.55
2023-03-11T01:30:44.835Z,10.55
2023-03-11T01:33:19.566Z,10.55
2023-03-11T01:35:46.881Z,10.54
2023-03-11T01:38:13.594Z,10.50
2023-03-11T01:40:44.013Z,10.45
2023-03-11T01:43:48.764Z,10.46
2023-03-11T01:46:31.149Z,10.42
2023-03-11T01:49:00.100Z,10.41
2023-03-11T01:51:33.648Z,10.39
2023-03-11T01:54:07.216Z,10.37
2023-03-11T01:56:35.616Z,10.35
2023-03-11T01:59:02.787Z,10.34
2023-03-11T02:01:30.562Z,10.35
2023-03-11T02:03:58.035Z,10.30
2023-03-11T02:06:25.992Z,10.26
2023-03-11T02:08:52.894Z,10.25
2023-03-11T02:11:24.996Z,10.19
2023-03-11T02:13:54.821Z,10.21
2023-03-11T02:16:21.854Z,10.15
2023-03-11T02:18:48.644Z,10.08
2023-03-11T02:21:29.178Z,10.05
2023-03-11T02:23:58.399Z,9.98
2023-03-11T02:26:59.134Z,9.86
2023-03-11T02:29:28.219Z,9.79
2023-03-11T02:31:56.827Z,9.72
2023-03-11T02:34:29.633Z,9.67
2023-03-11T02:36:56.934Z,9.61
2023-03-11T02:39:35.552Z,9.56
2023-03-11T02:42:32.128Z,9.52
2023-03-11T02:45:08.483Z,9.48
2023-03-11T02:47:37.871Z,9.44
2023-03-11T02:50:05.814Z,9.38
2023-03-11T02:52:34.611Z,9.40
2023-03-11T02:55:01.720Z,9.39
2023-03-11T02:57:28.416Z,9.38
2023-03-11T02:59:55.175Z,9.34
2023-03-11T03:02:21.912Z,9.37
2023-03-11T03:04:48.551Z,9.35
2023-03-11T03:07:15.269Z,9.37
2023-03-11T03:09:41.918Z,9.33
2023-03-11T03:12:08.610Z,9.36
2023-03-11T03:14:35.225Z,9.40
2023-03-11T03:17:02.122Z,9.39
2023-03-11T03:19:28.762Z,9.41
2023-03-11T03:21:55.500Z,9.36
2023-03-11T03:24:22.175Z,9.38
2023-03-11T03:26:48.785Z,9.37
2023-03-11T03:29:15.427Z,9.37
2023-03-11T03:31:42.109Z,9.36
2023-03-11T03:34:09.415Z,9.38
2023-03-11T03:36:36.218Z,9.36
2023-03-11T03:39:04.912Z,9.44
2023-03-11T03:41:31.542Z,9.49
2023-03-11T03:43:58.407Z,9.50
2023-03-11T03:46:25.538Z,9.58
2023-03-11T03:48:52.270Z,9.53
2023-03-11T03:51:19.080Z,9.48
2023-03-11T03:53:48.443Z,9.57
2023-03-11T03:56:17.221Z,9.53
2023-03-11T03:58:44.203Z,9.49
2023-03-11T04:01:12.421Z,9.44
2023-03-11T04:03:40.030Z,9.47
2023-03-11T04:06:09.163Z,9.47
2023-03-11T04:08:35.930Z,9.43
2023-03-11T04:11:02.618Z,9.42
2023-03-11T04:13:29.817Z,9.43
2023-03-11T04:15:56.477Z,9.42
2023-03-11T04:18:23.160Z,9.38
2023-03-11T04:20:50.215Z,9.38
2023-03-11T04:23:17.312Z,9.40
2023-03-11T04:25:44.008Z,9.36
2023-03-11T04:28:10.720Z,9.31
2023-03-11T04:30:37.474Z,9.38
2023-03-11T04:33:04.170Z,9.35
2023-03-11T04:35:30.880Z,9.36
2023-03-11T04:37:57.604Z,9.28
2023-03-11T04:40:24.293Z,9.34
2023-03-11T04:42:51.117Z,9.29
2023-03-11T04:45:18.842Z,9.30
2023-03-11T04:47:52.008Z,9.28
2023-03-11T04:50:19.312Z,9.29
2023-03-11T04:52:46.486Z,9.29
2023-03-11T04:55:14.234Z,9.27
2023-03-11T04:57:41.871Z,9.21
2023-03-11T05:00:11.353Z,9.23
2023-03-11T05:02:39.549Z,9.16
2023-03-11T05:05:08.472Z,9.21
2023-03-11T05:07:36.166Z,9.19
2023-03-11T05:10:04.629Z,9.21
2023-03-11T05:12:31.579Z,9.13
2023-03-11T05:14:58.182Z,9.21
2023-03-11T05:17:25.137Z,9.20
2023-03-11T05:19:53.748Z,9.22
2023-03-11T05:22:21.449Z,9.27
2023-03-11T05:24:48.437Z,9.28
2023-03-11T05:27:20.124Z,9.29
2023-03-11T05:29:46.935Z,9.31
2023-03-11T05:32:14.136Z,9.33
2023-03-11T05:34:41.761Z,9.36
2023-03-11T05:37:09.070Z,9.36
2023-03-11T05:39:37.734Z,9.42
2023-03-11T05:42:08.371Z,9.46
2023-03-11T05:44:35.073Z,9.46
2023-03-11T05:47:01.807Z,9.42
2023-03-11T05:49:28.722Z,9.43
2023-03-11T05:51:58.384Z,9.50
2023-03-11T05:54:25.484Z,9.50
2023-03-11T05:56:52.403Z,9.54
2023-03-11T05:59:19.255Z,9.57
2023-03-11T06:01:45.947Z,9.56
2023-03-11T06:04:13.038Z,9.60
2023-03-11T06:06:44.303Z,9.62
2023-03-11T06:09:14.887Z,9.61
2023-03-11T06:11:42.438Z,9.70
2023-03-11T06:14:14.218Z,9.72
2023-03-11T06:16:42.194Z,9.72
2023-03-11T06:19:09.666Z,9.72
2023-03-11T06:21:36.386Z,9.75
2023-03-11T06:24:03.350Z,9.74
2023-03-11T06:26:30.025Z,9.73
2023-03-11T06:28:56.708Z,9.72
2023-03-11T06:31:27.297Z,9.73
2023-03-11T06:33:58.842Z,9.72
2023-03-11T06:36:25.781Z,9.65
2023-03-11T06:38:53.683Z,9.65
2023-03-11T06:41:20.651Z,9.64
2023-03-11T06:43:47.472Z,9.57
2023-03-11T06:46:21.687Z,9.60
2023-03-11T06:48:52.225Z,9.52
2023-03-11T06:51:19.834Z,9.51
2023-03-11T06:53:51.055Z,9.45
2023-03-11T06:56:18.552Z,9.40
2023-03-11T06:58:45.850Z,9.36
2023-03-11T07:01:18.866Z,9.33
2023-03-11T07:03:49.552Z,9.32
2023-03-11T07:06:20.314Z,9.30
2023-03-11T07:08:48.731Z,9.21
2023-03-11T07:11:17.725Z,9.15
2023-03-11T07:13:45.465Z,9.01
2023-03-11T07:16:19.398Z,9.02
2023-03-11T07:18:47.399Z,8.99
2023-03-11T07:21:16.598Z,8.98
2023-03-11T07:23:43.996Z,8.96
2023-03-11T07:26:12.702Z,8.96
2023-03-11T07:28:39.987Z,8.94
2023-03-11T07:31:11.887Z,8.95
2023-03-11T07:33:38.846Z,8.94
2023-03-11T07:36:10.644Z,8.97
2023-03-11T07:38:37.346Z,8.91
2023-03-11T07:41:04.967Z,8.89
2023-03-11T07:43:32.348Z,8.86
2023-03-11T07:46:17.630Z,8.86
2023-03-11T07:48:45.465Z,8.78
2023-03-11T07:51:14.575Z,8.75
2023-03-11T07:53:41.708Z,8.80
2023-03-11T07:56:10.897Z,8.81
2023-03-11T07:58:37.983Z,8.82
2023-03-11T08:01:12.205Z,8.83
2023-03-11T08:03:39.178Z,8.86
2023-03-11T08:06:17.453Z,8.84
2023-03-11T08:08:44.453Z,8.81
2023-03-11T08:11:13.276Z,8.82
2023-03-11T08:13:41.519Z,8.87
2023-03-11T08:16:10.101Z,8.94
2023-03-11T08:18:36.818Z,9.00
2023-03-11T08:21:09.387Z,9.04
2023-03-11T08:23:36.346Z,9.06
2023-03-11T08:26:05.266Z,9.09
2023-03-11T08:28:32.278Z,9.10
2023-03-11T08:30:59.606Z,9.18
2023-03-11T08:33:26.342Z,9.23
2023-03-11T08:35:53.717Z,9.28
2023-03-11T08:38:21.065Z,9.37
2023-03-11T08:40:47.732Z,9.43
2023-03-11T08:43:15.159Z,9.46
2023-03-11T08:45:42.838Z,9.53
2023-03-11T08:48:11.465Z,9.64
2023-03-11T08:50:53.346Z,9.74
2023-03-11T08:53:21.369Z,9.83
2023-03-11T08:55:48.060Z,9.89
2023-03-11T08:58:14.798Z,9.97
2023-03-11T09:00:41.437Z,10.06
2023-03-11T09:03:08.539Z,10.09
2023-03-11T09:05:35.641Z,10.17
2023-03-11T09:08:05.393Z,10.18
2023-03-11T09:10:32.926Z,10.17
2023-03-11T09:12:59.565Z,10.20
2023-03-11T09:15:26.294Z,10.25
2023-03-11T09:17:53.998Z,10.35
2023-03-11T09:20:20.721Z,10.49
2023-03-11T09:22:47.451Z,10.65
2023-03-11T09:25:14.781Z,10.79
2023-03-11T09:27:41.542Z,10.95
2023-03-11T09:30:10.104Z,11.12
2023-03-11T09:32:37.526Z,11.32
2023-03-11T09:35:05.264Z,11.42
2023-03-11T09:37:32.402Z,11.46
2023-03-11T09:39:59.011Z,11.42
2023-03-11T09:42:46.121Z,11.41
2023-03-11T09:45:23.659Z,11.56
2023-03-11T09:47:53.283Z,11.55
2023-03-11T09:50:30.676Z,11.50
2023-03-11T09:53:19.129Z,11.68
2023-03-11T09:55:55.393Z,11.76
2023-03-11T09:58:51.043Z,11.83
2023-03-11T10:01:25.277Z,11.81
2023-03-11T10:03:54.521Z,11.71
2023-03-11T10:06:29.134Z,11.73
2023-03-11T10:09:32.914Z,11.82
2023-03-11T10:12:09.787Z,11.80
2023-03-11T10:14:48.818Z,11.91
2023-03-11T10:17:50.790Z,12.07
2023-03-11T10:20:20.089Z,12.25
2023-03-11T10:22:46.643Z,12.42
2023-03-11T10:25:25.680Z,12.58
2023-03-11T10:28:05.655Z,12.55
2023-03-11T10:30:46.382Z,12.62
2023-03-11T10:33:28.577Z,12.74
2023-03-11T10:35:58.885Z,12.80
2023-03-11T10:38:33.340Z,12.91
2023-03-11T10:41:05.402Z,12.90
2023-03-11T10:43:44.912Z,12.88
2023-03-11T10:46:21.551Z,12.80
2023-03-11T10:48:48.356Z,12.63
2023-03-11T10:51:22.738Z,12.61
2023-03-11T10:53:56.742Z,12.56
2023-03-11T10:56:44.022Z,12.59
2023-03-11T10:59:45.451Z,12.67
2023-03-11T11:02:34.840Z,12.63
2023-03-11T11:05:22.915Z,12.51
2023-03-11T11:08:12.391Z,12.44
2023-03-11T11:10:50.677Z,12.28
2023-03-11T11:13:20.998Z,12.22
2023-03-11T11:15:56.662Z,12.09
2023-03-11T11:19:00.008Z,11.92
2023-03-11T11:21:34.677Z,11.79
2023-03-11T11:24:15.701Z,11.72
2023-03-11T11:26:43.166Z,11.63
2023-03-11T11:29:09.873Z,11.58
2023-03-11T11:31:42.086Z,11.57
2023-03-11T11:34:29.702Z,11.52
2023-03-11T11:37:02.939Z,11.50
2023-03-11T11:39:40.161Z,11.49
2023-03-11T11:42:11.991Z,11.45
2023-03-11T11:44:39.904Z,11.44
2023-03-11T11:47:16.093Z,11.41
2023-03-11T11:49:54.663Z,11.48
2023-03-11T11:52:33.332Z,11.53
2023-03-11T11:55:08.333Z,11.55
2023-03-11T11:57:35.254Z,11.49
2023-03-11T12:00:05.605Z,11.42
2023-03-11T12:02:56.800Z,11.36
2023-03-11T12:05:30.574Z,11.31
2023-03-11T12:08:07.429Z,11.24
2023-03-11T12:10:49.245Z,11.21
2023-03-11T12:13:29.319Z,11.19
2023-03-11T12:16:13.053Z,11.21
2023-03-11T12:18:49.631Z,11.20
2023-03-11T12:21:29.124Z,11.28
2023-03-11T12:24:07.244Z,11.30
2023-03-11T12:26:38.485Z,11.29
2023-03-11T12:29:38.802Z,11.28
2023-03-11T12:32:07.114Z,11.28
2023-03-11T12:34:36.148Z,11.24
2023-03-11T12:37:13.428Z,11.22
2023-03-11T12:39:40.207Z,11.17
2023-03-11T12:42:25.529Z,11.13
2023-03-11T12:44:53.821Z,11.03
2023-03-11T12:47:25.904Z,10.98
2023-03-11T12:50:16.382Z,10.84
2023-03-11T12:53:00.893Z,10.80
2023-03-11T12:55:32.003Z,10.78
2023-03-11T12:58:11.820Z,10.77
2023-03-11T13:01:27.989Z,10.69
2023-03-11T13:04:04.202Z,10.58
2023-03-11T13:06:40.361Z,10.57
2023-03-11T13:09:14.631Z,10.59
2023-03-11T13:11:47.275Z,10.59
2023-03-11T13:14:33.777Z,10.54
2023-03-11T13:17:19.287Z,10.49
2023-03-11T13:19:51.912Z,10.40
2023-03-11T13:22:43.832Z,10.40
2023-03-11T13:25:40.822Z,10.37
2023-03-11T13:28:35.784Z,10.34
2023-03-11T13:31:29.564Z,10.30
2023-03-11T13:34:02.666Z,10.29
2023-03-11T13:37:11.004Z,10.25
2023-03-11T13:39:55.083Z,10.19
2023-03-11T13:42:31.496Z,10.14
2023-03-11T13:44:59.167Z,10.08
2023-03-11T13:47:27.416Z,10.02
2023-03-11T13:49:59.742Z,9.98
2023-03-11T13:52:42.042Z,9.97
2023-03-11T13:55:17.713Z,9.99
2023-03-11T13:57:53.059Z,9.99
2023-03-11T14:00:25.410Z,9.92
2023-03-11T14:02:55.558Z,9.86
2023-03-11T14:05:33.541Z,9.76
2023-03-11T14:08:27.122Z,9.88
2023-03-11T14:10:58.898Z,9.85
2023-03-11T14:13:28.720Z,9.88
2023-03-11T14:16:09.827Z,9.90
2023-03-11T14:18:46.592Z,9.91
2023-03-11T14:21:19.432Z,9.91
2023-03-11T14:23:51.865Z,9.91
2023-03-11T14:26:24.783Z,9.91
2023-03-11T14:28:53.860Z,9.87
2023-03-11T14:31:37.693Z,9.82
2023-03-11T14:34:12.894Z,9.78
2023-03-11T14:36:49.669Z,9.68
2023-03-11T14:39:31.809Z,9.56
2023-03-11T14:42:19.047Z,9.47
2023-03-11T14:44:55.774Z,9.46
2023-03-11T14:47:33.019Z,9.34
2023-03-11T14:50:00.895Z,9.18
2023-03-11T14:52:37.276Z,9.01
2023-03-11T14:55:08.612Z,8.92
2023-03-11T14:57:42.250Z,8.84
2023-03-11T15:00:40.803Z,8.62
2023-03-11T15:03:24.774Z,8.30
2023-03-11T15:05:57.312Z,8.02
2023-03-11T15:08:28.691Z,7.82
2023-03-11T15:11:03.259Z,7.69
2023-03-11T15:13:30.300Z,7.50
2023-03-11T15:16:02.754Z,7.41
2023-03-11T15:18:37.744Z,7.28
2023-03-11T15:21:25.217Z,7.13
2023-03-11T15:24:00.077Z,7.08
2023-03-11T15:26:30.129Z,6.97
2023-03-11T15:29:03.515Z,6.74
2023-03-11T15:31:37.585Z,6.65
2023-03-11T15:34:10.284Z,6.55
2023-03-11T15:36:39.751Z,6.42
2023-03-11T15:39:32.326Z,6.34
2023-03-11T15:42:02.195Z,6.22
2023-03-11T15:44:40.806Z,6.16
2023-03-11T15:47:22.165Z,6.11
2023-03-11T15:49:49.959Z,6.08
2023-03-11T15:52:22.131Z,6.12
2023-03-11T15:54:55.407Z,6.04
2023-03-11T15:57:25.064Z,6.07
2023-03-11T15:59:53.785Z,6.04
2023-03-11T16:02:25.750Z,6.08
2023-03-11T16:04:53.370Z,6.04
2023-03-11T16:07:36.477Z,6.06
2023-03-11T16:10:05.829Z,5.98
2023-03-11T16:12:32.825Z,6.01
2023-03-11T16:14:59.427Z,5.97
2023-03-11T16:17:27.542Z,5.93
2023-03-11T16:19:58.659Z,5.85
2023-03-11T16:22:35.089Z,5.88
2023-03-11T16:25:03.169Z,5.89
2023-03-11T16:27:30.813Z,5.90
2023-03-11T16:29:57.511Z,5.82
2023-03-11T16:32:24.305Z,5.85
2023-03-11T16:34:51.243Z,5.85
2023-03-11T16:37:21.616Z,5.84
2023-03-11T16:39:48.759Z,5.84
2023-03-11T16:42:25.606Z,5.89
2023-03-11T16:44:52.459Z,5.83
2023-03-11T16:47:19.166Z,5.84
2023-03-11T16:49:45.825Z,5.80
2023-03-11T16:52:12.550Z,5.80
2023-03-11T16:54:39.272Z,5.77
2023-03-11T16:57:05.890Z,5.76
2023-03-11T16:59:32.665Z,5.75
2023-03-11T17:01:59.551Z,5.73
2023-03-11T17:04:26.229Z,5.71
2023-03-11T17:06:53.175Z,5.70
2023-03-11T17:09:20.706Z,5.67
2023-03-11T17:11:49.960Z,5.62
2023-03-11T17:14:17.789Z,5.60
2023-03-11T17:16:45.213Z,5.52
2023-03-11T17:19:12.043Z,5.53
2023-03-11T17:21:39.164Z,5.48
2023-03-11T17:24:07.237Z,5.49
2023-03-11T17:26:33.879Z,5.45
2023-03-11T17:29:00.588Z,5.48
2023-03-11T17:31:27.723Z,5.41
2023-03-11T17:33:54.383Z,5.42
2023-03-11T17:36:21.126Z,5.41
2023-03-11T17:38:47.842Z,5.32
2023-03-11T17:41:16.986Z,5.27
2023-03-11T17:43:44.976Z,5.31
2023-03-11T17:46:15.263Z,5.33
2023-03-11T17:48:43.571Z,5.29
2023-03-11T17:51:12.962Z,5.15
2023-03-11T17:53:46.085Z,5.23
2023-03-11T17:56:16.128Z,5.24
2023-03-11T17:58:43.080Z,5.20
2023-03-11T18:01:15.537Z,5.19
2023-03-11T18:03:42.594Z,5.14
2023-03-11T18:06:13.085Z,5.02
2023-03-11T18:08:40.092Z,5.02
2023-03-11T18:11:11.985Z,5.03
2023-03-11T18:13:39.580Z,4.97
2023-03-11T18:16:13.850Z,4.89
2023-03-11T18:18:42.571Z,4.77
2023-03-11T18:21:18.442Z,4.72
2023-03-11T18:23:45.549Z,4.62
2023-03-11T18:26:19.198Z,4.59
2023-03-11T18:28:46.648Z,4.48
2023-03-11T18:31:16.381Z,4.50
2023-03-11T18:33:48.191Z,4.42
2023-03-11T18:36:27.627Z,4.42
2023-03-11T18:38:57.051Z,4.42
2023-03-11T18:41:24.616Z,4.42
2023-03-11T18:43:57.458Z,4.36
2023-03-11T18:46:26.134Z,4.41
2023-03-11T18:48:54.227Z,4.43
2023-03-11T18:51:21.008Z,4.40
2023-03-11T18:53:47.760Z,4.40
2023-03-11T18:56:16.310Z,4.34
2023-03-11T18:58:43.838Z,4.36
2023-03-11T19:01:15.938Z,4.31
2023-03-11T19:03:44.214Z,4.31
2023-03-11T19:06:13.152Z,4.29
2023-03-11T19:08:40.580Z,4.33
2023-03-11T19:11:14.717Z,4.26
2023-03-11T19:13:46.973Z,4.32
2023-03-11T19:16:15.665Z,4.28
2023-03-11T19:18:42.858Z,4.22
2023-03-11T19:21:12.045Z,4.25
2023-03-11T19:23:38.850Z,4.22
2023-03-11T19:26:06.382Z,4.24
2023-03-11T19:28:33.127Z,4.25
2023-03-11T19:31:00.522Z,4.20
2023-03-11T19:33:27.643Z,4.28
2023-03-11T19:35:56.540Z,4.27
2023-03-11T19:38:23.812Z,4.29
2023-03-11T19:40:54.816Z,4.31
2023-03-11T19:43:23.897Z,4.30
2023-03-11T19:45:51.066Z,4.36
2023-03-11T19:48:18.619Z,4.31
2023-03-11T19:50:45.457Z,4.38
2023-03-11T19:53:12.293Z,4.35
2023-03-11T19:55:46.486Z,4.29
2023-03-11T19:58:13.471Z,4.37
2023-03-11T20:00:41.934Z,4.35
2023-03-11T20:03:10.076Z,4.31
2023-03-11T20:05:39.006Z,4.29
2023-03-11T20:08:07.287Z,4.29
2023-03-11T20:10:37.946Z,4.31
2023-03-11T20:13:05.075Z,4.29
2023-03-11T20:15:32.067Z,4.28
2023-03-11T20:18:00.762Z,4.28
2023-03-11T20:20:28.759Z,4.26
2023-03-11T20:22:56.053Z,4.31
2023-03-11T20:25:25.078Z,4.30
2023-03-11T20:27:53.549Z,4.22
2023-03-11T20:30:20.581Z,4.30
2023-03-11T20:32:47.812Z,4.29
2023-03-11T20:35:15.480Z,4.21
2023-03-11T20:37:43.611Z,4.24
2023-03-11T20:40:13.690Z,4.21
2023-03-11T20:42:43.511Z,4.13
2023-03-11T20:45:11.284Z,4.18
2023-03-11T20:47:38.033Z,4.06
2023-03-11T20:50:05.417Z,4.09
2023-03-11T20:52:35.783Z,4.02
2023-03-11T20:55:03.549Z,4.00
2023-03-11T20:57:30.747Z,4.01
2023-03-11T20:59:57.430Z,3.95
2023-03-11T21:02:24.187Z,3.96
2023-03-11T21:04:50.978Z,4.00
2023-03-11T21:07:17.830Z,3.89
2023-03-11T21:09:44.511Z,3.85
2023-03-11T21:12:11.484Z,3.61
2023-03-11T21:14:38.436Z,3.57
2023-03-11T21:17:05.180Z,3.47
2023-03-11T21:19:32.201Z,3.36
2023-03-11T21:21:59.145Z,3.32
2023-03-11T21:24:25.899Z,3.18
2023-03-11T21:26:52.599Z,3.02
2023-03-11T21:29:19.305Z,2.84
2023-03-11T21:31:46.254Z,2.69
2023-03-11T21:34:13.238Z,2.66
2023-03-11T21:36:40.365Z,2.53
2023-03-11T21:39:07.896Z,2.56
2023-03-11T21:41:34.805Z,2.52
2023-03-11T21:44:01.842Z,2.44
2023-03-11T21:46:31.224Z,2.35
2023-03-11T21:48:58.778Z,2.29
2023-03-11T21:51:26.161Z,2.39
2023-03-11T21:53:53.022Z,2.35
2023-03-11T21:56:20.389Z,2.31
2023-03-11T21:58:47.579Z,2.25
2023-03-11T22:01:14.521Z,2.20
2023-03-11T22:03:41.843Z,2.16
2023-03-11T22:06:11.805Z,2.18
2023-03-11T22:08:39.524Z,2.17
2023-03-11T22:11:14.152Z,2.21
2023-03-11T22:13:41.031Z,2.15
2023-03-11T22:16:08.275Z,2.09
2023-03-11T22:18:35.417Z,2.21
2023-03-11T22:21:02.181Z,2.19
2023-03-11T22:23:29.025Z,2.16
2023-03-11T22:25:55.784Z,2.19
2023-03-11T22:28:22.581Z,2.18
2023-03-11T22:30:49.198Z,2.10
2023-03-11T22:33:16.189Z,2.07
2023-03-11T22:35:53.385Z,2.11
2023-03-11T22:38:21.696Z,2.07
2023-03-11T22:40:48.308Z,2.06
2023-03-11T22:43:15.076Z,2.09
2023-03-11T22:45:42.066Z,2.08
2023-03-11T22:48:08.711Z,2.07
2023-03-11T22:50:35.383Z,2.05
2023-03-11T22:53:02.084Z,2.05
2023-03-11T22:55:28.768Z,1.95
2023-03-11T22:57:55.409Z,2.03
2023-03-11T23:00:23.511Z,2.02
2023-03-11T23:02:55.806Z,2.00
2023-03-11T23:05:23.620Z,2.01
2023-03-11T23:07:50.975Z,2.02
2023-03-11T23:10:21.257Z,1.99
2023-03-11T23:12:48.535Z,2.05
2023-03-11T23:15:18.725Z,2.01
2023-03-11T23:17:45.387Z,2.02
2023-03-11T23:20:14.572Z,2.01
2023-03-11T23:22:42.235Z,1.97
2023-03-11T23:25:12.349Z,1.97
2023-03-11T23:27:39.122Z,1.97
2023-03-11T23:30:06.508Z,1.91
2023-03-11T23:32:33.442Z,1.96
2023-03-11T23:35:00.168Z,1.93
2023-03-11T23:37:26.794Z,1.91
2023-03-11T23:39:53.576Z,1.98
2023-03-11T23:42:25.706Z,2.02
2023-03-11T23:44:54.261Z,2.03
2023-03-11T23:47:21.277Z,1.98
2023-03-11T23:49:47.884Z,1.92
2023-03-11T23:52:14.737Z,2.01
2023-03-11T23:54:41.456Z,1.91
2023-03-11T23:57:08.254Z,1.89
2023-03-11T23:59:35.081Z,1.86
